createdAt,value
2023-05-23T00:01:45.448Z,90.60
2023-05-23T00:04:17.257Z,90.70
2023-05-23T00:06:50.509Z,91.00
2023-05-23T00:09:17.737Z,91.10
2023-05-23T00:11:45.707Z,91.70
2023-05-23T00:14:15.295Z,92.00
2023-05-23T00:16:44.817Z,92.30
2023-05-23T00:19:16.336Z,92.60
2023-05-23T00:21:51.226Z,92.80
2023-05-23T00:24:20.337Z,93.00
2023-05-23T00:26:47.566Z,93.00
2023-05-23T00:29:16.685Z,93.10
2023-05-23T00:31:48.661Z,93.30
2023-05-23T00:34:19.117Z,93.70
2023-05-23T00:36:47.736Z,94.60
2023-05-23T00:39:19.775Z,95.10
2023-05-23T00:41:52.384Z,95.60
2023-05-23T00:44:21.548Z,96.50
2023-05-23T00:46:56.489Z,97.00
2023-05-23T00:49:24.697Z,97.10
2023-05-23T00:51:52.738Z,97.40
2023-05-23T00:54:33.287Z,97.50
2023-05-23T00:57:00.856Z,97.80
2023-05-23T00:59:28.287Z,98.20
2023-05-23T01:01:58.477Z,98.30
2023-05-23T01:04:29.433Z,98.30
2023-05-23T01:06:57.597Z,98.30
2023-05-23T01:09:28.757Z,98.30
2023-05-23T01:12:29.367Z,98.40
2023-05-23T01:15:18.200Z,98.40
2023-05-23T01:18:19.795Z,98.40
2023-05-23T01:20:56.912Z,98.30
2023-05-23T01:23:56.833Z,98.10
2023-05-23T01:27:08.416Z,98.00
2023-05-23T01:29:46.736Z,98.00
2023-05-23T01:32:17.489Z,97.70
2023-05-23T01:34:47.093Z,98.00
2023-05-23T01:37:19.477Z,98.10
2023-05-23T01:39:47.747Z,98.30
2023-05-23T01:42:15.504Z,98.80
2023-05-23T01:44:45.599Z,99.30
2023-05-23T01:47:15.294Z,99.60
2023-05-23T01:49:44.824Z,99.90
2023-05-23T01:52:13.492Z,99.90
2023-05-23T01:54:42.400Z,99.90
2023-05-23T01:57:10.852Z,99.90
2023-05-23T01:59:38.900Z,99.90
2023-05-23T02:02:06.218Z,99.90
2023-05-23T02:04:33.725Z,99.90
2023-05-23T02:07:00.868Z,99.90
2023-05-23T02:09:27.897Z,99.90
2023-05-23T02:11:55.361Z,99.90
2023-05-23T02:14:22.335Z,99.90
2023-05-23T02:16:49.492Z,99.90
2023-05-23T02:19:16.488Z,99.90
2023-05-23T02:21:43.429Z,99.90
2023-05-23T02:24:10.857Z,99.90
2023-05-23T02:26:38.028Z,99.90
2023-05-23T02:29:04.998Z,99.90
2023-05-23T02:31:32.047Z,99.90
2023-05-23T02:33:59.006Z,99.90
2023-05-23T02:36:26.673Z,99.90
2023-05-23T02:38:53.597Z,99.90
2023-05-23T02:41:21.202Z,99.90
2023-05-23T02:43:48.257Z,99.90
2023-05-23T02:46:15.571Z,99.90
2023-05-23T02:48:42.574Z,99.90
2023-05-23T02:51:09.522Z,99.90
2023-05-23T02:53:36.498Z,99.90
2023-05-23T02:56:03.400Z,99.90
2023-05-23T02:58:30.374Z,99.90
2023-05-23T03:00:58.049Z,99.90
2023-05-23T03:03:25.163Z,99.90
2023-05-23T03:05:52.170Z,99.90
2023-05-23T03:08:19.067Z,99.90
2023-05-23T03:10:46.169Z,99.90
2023-05-23T03:13:13.148Z,99.90
2023-05-23T03:15:40.257Z,99.90
2023-05-23T03:18:07.381Z,99.90
2023-05-23T03:20:34.515Z,99.90
2023-05-23T03:23:01.462Z,99.90
2023-05-23T03:25:28.373Z,99.90
2023-05-23T03:27:55.903Z,99.90
2023-05-23T03:30:22.827Z,99.90
2023-05-23T03:32:50.045Z,99.90
2023-05-23T03:35:17.197Z,99.90
2023-05-23T03:37:44.129Z,99.90
2023-05-23T03:40:11.296Z,99.90
2023-05-23T03:42:39.862Z,99.90
2023-05-23T03:45:07.781Z,99.90
2023-05-23T03:47:34.743Z,99.90
2023-05-23T03:50:01.693Z,99.90
2023-05-23T03:52:28.593Z,99.90
2023-05-23T03:54:55.490Z,99.90
2023-05-23T03:57:22.768Z,99.90
2023-05-23T03:59:50.414Z,99.90
2023-05-23T04:02:17.403Z,99.90
2023-05-23T04:04:44.418Z,99.90
2023-05-23T04:07:11.452Z,99.90
2023-05-23T04:09:38.401Z,99.90
2023-05-23T04:12:06.054Z,99.90
2023-05-23T04:14:33.524Z,99.90
2023-05-23T04:17:00.937Z,99.90
2023-05-23T04:19:27.986Z,99.90
2023-05-23T04:21:54.998Z,99.90
2023-05-23T04:24:22.018Z,99.90
2023-05-23T04:26:49.675Z,99.90
2023-05-23T04:29:16.837Z,99.90
2023-05-23T04:31:46.144Z,99.90
2023-05-23T04:34:13.452Z,99.90
2023-05-23T04:36:40.353Z,99.90
2023-05-23T04:39:07.307Z,99.90
2023-05-23T04:41:34.258Z,99.90
2023-05-23T04:44:01.255Z,99.90
2023-05-23T04:46:28.267Z,99.90
2023-05-23T04:48:56.306Z,99.90
2023-05-23T04:51:23.218Z,99.90
2023-05-23T04:53:52.501Z,99.90
2023-05-23T04:56:21.788Z,99.90
2023-05-23T04:58:49.251Z,99.90
2023-05-23T05:01:16.214Z,99.90
2023-05-23T05:03:43.219Z,99.90
2023-05-23T05:06:10.212Z,99.90
2023-05-23T05:08:37.149Z,99.90
2023-05-23T05:11:04.216Z,99.90
2023-05-23T05:13:31.200Z,99.90
2023-05-23T05:15:58.842Z,99.90
2023-05-23T05:18:30.563Z,99.90
2023-05-23T05:20:58.413Z,99.90
2023-05-23T05:23:30.144Z,99.90
2023-05-23T05:25:57.429Z,99.90
2023-05-23T05:28:24.521Z,99.90
2023-05-23T05:30:54.655Z,99.90
2023-05-23T05:33:25.680Z,99.90
2023-05-23T05:35:52.920Z,99.90
2023-05-23T05:38:20.013Z,99.90
2023-05-23T05:40:46.982Z,99.90
2023-05-23T05:43:13.955Z,99.90
2023-05-23T05:45:40.898Z,99.90
2023-05-23T05:48:08.190Z,99.90
2023-05-23T05:50:35.277Z,99.90
2023-05-23T05:53:02.338Z,99.90
2023-05-23T05:55:29.659Z,99.90
2023-05-23T05:57:56.791Z,99.90
2023-05-23T06:00:23.947Z,99.90
2023-05-23T06:02:57.228Z,99.90
2023-05-23T06:05:25.083Z,99.90
2023-05-23T06:07:52.425Z,99.90
2023-05-23T06:10:19.496Z,99.90
2023-05-23T06:12:46.525Z,99.90
2023-05-23T06:15:14.525Z,99.90
2023-05-23T06:17:42.411Z,99.90
2023-05-23T06:20:10.838Z,99.90
2023-05-23T06:22:37.908Z,99.90
2023-05-23T06:25:07.221Z,99.90
2023-05-23T06:27:34.206Z,99.90
2023-05-23T06:30:01.648Z,99.90
2023-05-23T06:32:28.591Z,99.70
2023-05-23T06:34:55.636Z,99.50
2023-05-23T06:37:22.556Z,99.10
2023-05-23T06:39:49.478Z,98.20
2023-05-23T06:42:16.593Z,97.40
2023-05-23T06:44:43.573Z,97.20
2023-05-23T06:47:10.585Z,96.80
2023-05-23T06:49:37.568Z,96.50
2023-05-23T06:52:04.749Z,96.20
2023-05-23T06:54:31.736Z,95.70
2023-05-23T06:56:58.729Z,95.40
2023-05-23T06:59:25.732Z,95.60
2023-05-23T07:01:52.634Z,95.10
2023-05-23T07:04:19.665Z,94.70
2023-05-23T07:06:46.702Z,94.70
2023-05-23T07:09:13.635Z,94.20
2023-05-23T07:11:41.106Z,93.80
2023-05-23T07:14:08.048Z,93.30
2023-05-23T07:16:35.110Z,93.10
2023-05-23T07:19:03.199Z,92.20
2023-05-23T07:21:30.916Z,92.30
2023-05-23T07:23:57.879Z,92.30
2023-05-23T07:26:24.837Z,92.10
2023-05-23T07:28:51.955Z,91.90
2023-05-23T07:31:19.065Z,91.50
2023-05-23T07:33:46.120Z,91.10
2023-05-23T07:36:13.036Z,89.80
2023-05-23T07:38:40.002Z,90.00
2023-05-23T07:41:11.954Z,90.70
2023-05-23T07:43:40.640Z,91.00
2023-05-23T07:46:07.866Z,91.10
2023-05-23T07:48:34.879Z,91.10
2023-05-23T07:51:01.816Z,90.60
2023-05-23T07:53:28.800Z,90.60
2023-05-23T07:55:56.528Z,90.90
2023-05-23T07:58:23.434Z,90.70
2023-05-23T08:03:38.835Z,90.70
2023-05-23T08:06:07.346Z,91.10
2023-05-23T08:08:34.274Z,90.40
2023-05-23T08:11:01.175Z,90.40
2023-05-23T08:13:28.377Z,90.50
2023-05-23T08:15:55.634Z,91.00
2023-05-23T08:18:22.773Z,91.10
2023-05-23T08:20:49.834Z,91.00
2023-05-23T08:23:17.863Z,91.00
2023-05-23T08:25:44.810Z,90.90
2023-05-23T08:28:11.758Z,90.40
2023-05-23T08:30:38.902Z,91.00
2023-05-23T08:33:07.119Z,91.50
2023-05-23T08:35:36.216Z,91.60
2023-05-23T08:38:10.264Z,91.40
2023-05-23T08:40:39.939Z,91.30
2023-05-23T08:43:07.326Z,91.00
2023-05-23T08:45:34.741Z,91.30
2023-05-23T08:48:09.956Z,91.50
2023-05-23T08:50:42.105Z,91.50
2023-05-23T08:53:10.421Z,91.40
2023-05-23T08:55:38.792Z,91.50
2023-05-23T08:58:06.384Z,91.30
2023-05-23T09:00:34.936Z,91.00
2023-05-23T09:03:01.859Z,90.10
2023-05-23T09:05:28.960Z,90.10
2023-05-23T09:07:56.729Z,86.30
2023-05-23T09:10:23.688Z,84.10
2023-05-23T09:12:50.749Z,82.00
2023-05-23T09:15:17.807Z,82.20
2023-05-23T09:17:45.543Z,83.90
2023-05-23T09:20:17.375Z,84.60
2023-05-23T09:22:49.006Z,84.40
2023-05-23T09:25:16.411Z,85.30
2023-05-23T09:27:46.624Z,85.30
2023-05-23T09:30:15.375Z,84.90
2023-05-23T09:32:42.693Z,82.60
2023-05-23T09:35:13.664Z,81.40
2023-05-23T09:37:48.877Z,80.50
2023-05-23T09:40:16.455Z,78.20
2023-05-23T09:42:47.666Z,77.00
2023-05-23T09:45:17.122Z,77.80
2023-05-23T09:47:53.916Z,77.20
2023-05-23T09:50:23.147Z,76.20
2023-05-23T09:52:51.220Z,76.00
2023-05-23T09:55:19.265Z,76.00
2023-05-23T09:57:57.286Z,76.20
2023-05-23T10:00:25.534Z,76.80
2023-05-23T10:03:14.202Z,77.70
2023-05-23T10:05:56.781Z,77.80
2023-05-23T10:08:44.286Z,77.40
2023-05-23T10:11:34.225Z,75.60
2023-05-23T10:14:11.825Z,75.20
2023-05-23T10:17:07.500Z,74.70
2023-05-23T10:19:48.426Z,76.50
2023-05-23T10:22:17.236Z,78.00
2023-05-23T10:24:46.597Z,78.60
2023-05-23T10:27:14.477Z,78.70
2023-05-23T10:29:42.134Z,74.60
2023-05-23T10:32:11.995Z,69.60
2023-05-23T10:35:15.655Z,67.80
2023-05-23T10:38:16.638Z,70.40
2023-05-23T10:41:03.106Z,73.60
2023-05-23T10:43:57.629Z,74.30
2023-05-23T10:47:02.292Z,74.60
2023-05-23T10:49:47.489Z,72.80
2023-05-23T10:52:17.525Z,68.50
2023-05-23T10:54:56.246Z,66.60
2023-05-23T10:57:29.475Z,70.20
2023-05-23T10:59:57.000Z,67.50
2023-05-23T11:02:29.358Z,67.40
2023-05-23T11:05:27.998Z,68.30
2023-05-23T11:08:17.568Z,71.40
2023-05-23T11:11:01.043Z,70.20
2023-05-23T11:13:55.311Z,66.70
2023-05-23T11:16:41.416Z,68.60
2023-05-23T11:19:26.020Z,70.00
2023-05-23T11:21:57.109Z,69.90
2023-05-23T11:24:40.908Z,65.90
2023-05-23T11:27:12.672Z,63.80
2023-05-23T11:29:39.844Z,65.70
2023-05-23T11:32:17.151Z,66.10
2023-05-23T11:34:44.784Z,67.60
2023-05-23T11:37:11.986Z,67.30
2023-05-23T11:39:40.366Z,66.00
2023-05-23T11:42:07.383Z,64.30
2023-05-23T11:44:34.328Z,66.30
2023-05-23T11:47:06.954Z,66.40
2023-05-23T11:49:40.658Z,63.40
2023-05-23T11:52:07.675Z,63.90
2023-05-23T11:54:34.757Z,65.60
2023-05-23T11:57:03.559Z,64.10
2023-05-23T11:59:30.796Z,63.60
2023-05-23T12:01:57.682Z,63.40
2023-05-23T12:04:26.943Z,59.80
2023-05-23T12:06:54.080Z,60.80
2023-05-23T12:09:21.741Z,62.70
2023-05-23T12:11:49.651Z,62.60
2023-05-23T12:14:18.282Z,61.30
2023-05-23T12:16:47.122Z,59.90
2023-05-23T12:19:17.795Z,59.60
2023-05-23T12:21:50.011Z,61.30
2023-05-23T12:24:22.948Z,62.30
2023-05-23T12:26:58.909Z,62.00
2023-05-23T12:29:34.792Z,59.60
2023-05-23T12:32:06.811Z,60.60
2023-05-23T12:34:33.982Z,61.90
2023-05-23T12:39:36.594Z,64.10
2023-05-23T12:42:10.302Z,63.20
2023-05-23T12:44:37.539Z,63.80
2023-05-23T12:47:04.772Z,66.10
2023-05-23T12:49:31.964Z,64.10
2023-05-23T12:51:59.042Z,61.70
2023-05-23T12:54:26.184Z,60.30
2023-05-23T12:56:53.193Z,60.30
2023-05-23T12:59:20.607Z,60.00
2023-05-23T13:01:47.539Z,62.20
2023-05-23T13:04:14.593Z,62.90
2023-05-23T13:06:41.617Z,63.00
2023-05-23T13:09:09.198Z,63.80
2023-05-23T13:11:36.288Z,63.30
2023-05-23T13:14:03.557Z,64.50
2023-05-23T13:16:30.858Z,65.60
2023-05-23T13:18:57.833Z,65.90
2023-05-23T13:21:24.936Z,64.60
2023-05-23T13:23:51.917Z,63.70
2023-05-23T13:26:19.130Z,64.10
2023-05-23T13:28:46.240Z,65.50
2023-05-23T13:31:13.252Z,66.10
2023-05-23T13:33:40.394Z,67.00
2023-05-23T13:36:07.675Z,67.50
2023-05-23T13:38:34.610Z,68.00
2023-05-23T13:41:01.724Z,67.40
2023-05-23T13:43:28.729Z,67.00
2023-05-23T13:45:55.730Z,65.30
2023-05-23T13:48:22.766Z,65.10
2023-05-23T13:50:49.948Z,66.80
2023-05-23T13:53:17.132Z,67.80
2023-05-23T13:55:47.541Z,68.50
2023-05-23T13:58:14.462Z,69.60
2023-05-23T14:00:41.735Z,69.70
2023-05-23T14:03:09.626Z,68.00
2023-05-23T14:05:36.909Z,67.60
2023-05-23T14:08:04.472Z,67.30
2023-05-23T14:10:33.178Z,67.10
2023-05-23T14:13:00.634Z,67.60
2023-05-23T14:15:28.236Z,67.80
2023-05-23T14:17:55.814Z,67.10
2023-05-23T14:20:23.831Z,66.80
2023-05-23T14:22:51.806Z,67.80
2023-05-23T14:25:19.255Z,67.10
2023-05-23T14:27:46.249Z,67.00
2023-05-23T14:30:13.843Z,67.50
2023-05-23T14:32:41.067Z,67.60
2023-05-23T14:35:11.805Z,67.80
2023-05-23T14:37:39.499Z,67.40
2023-05-23T14:40:10.129Z,66.20
2023-05-23T14:42:37.654Z,65.00
2023-05-23T14:45:05.437Z,63.00
2023-05-23T14:47:32.557Z,61.90
2023-05-23T14:49:59.926Z,62.20
2023-05-23T14:52:27.185Z,63.10
2023-05-23T14:54:54.103Z,64.60
2023-05-23T14:57:21.080Z,67.50
2023-05-23T14:59:48.366Z,68.80
2023-05-23T15:02:16.016Z,70.20
2023-05-23T15:04:43.329Z,71.30
2023-05-23T15:07:10.297Z,72.50
2023-05-23T15:09:37.455Z,72.50
2023-05-23T15:12:07.513Z,72.50
2023-05-23T15:14:34.402Z,71.30
2023-05-23T15:17:07.737Z,69.80
2023-05-23T15:19:37.012Z,69.00
2023-05-23T15:22:05.750Z,67.40
2023-05-23T15:24:33.748Z,65.70
2023-05-23T15:27:15.857Z,65.60
2023-05-23T15:29:46.997Z,64.60
2023-05-23T15:32:14.201Z,66.70
2023-05-23T15:34:41.201Z,67.40
2023-05-23T15:37:08.105Z,66.90
2023-05-23T15:39:34.991Z,66.40
2023-05-23T15:42:01.992Z,66.80
2023-05-23T15:44:29.150Z,67.70
2023-05-23T15:46:56.161Z,68.50
2023-05-23T15:49:26.990Z,69.20
2023-05-23T15:51:55.196Z,69.80
2023-05-23T15:54:22.781Z,70.40
2023-05-23T15:56:49.875Z,70.80
2023-05-23T15:59:16.883Z,71.30
2023-05-23T16:01:44.819Z,71.20
2023-05-23T16:04:11.918Z,69.20
2023-05-23T16:06:39.870Z,67.60
2023-05-23T16:09:06.888Z,67.40
2023-05-23T16:11:33.813Z,67.60
2023-05-23T16:14:00.805Z,68.20
2023-05-23T16:16:27.778Z,68.40
2023-05-23T16:18:54.821Z,69.30
2023-05-23T16:21:21.800Z,71.50
2023-05-23T16:23:49.750Z,72.90
2023-05-23T16:26:18.803Z,74.40
2023-05-23T16:28:45.908Z,75.00
2023-05-23T16:31:16.981Z,75.70
2023-05-23T16:33:45.046Z,76.40
2023-05-23T16:36:12.093Z,76.50
2023-05-23T16:38:39.064Z,76.90
2023-05-23T16:41:05.989Z,76.70
2023-05-23T16:43:34.676Z,76.60
2023-05-23T16:46:02.308Z,76.50
2023-05-23T16:48:29.460Z,76.80
2023-05-23T16:50:58.034Z,77.20
2023-05-23T16:53:25.090Z,77.90
2023-05-23T16:55:52.347Z,78.50
2023-05-23T16:58:20.859Z,78.90
2023-05-23T17:00:48.602Z,80.00
2023-05-23T17:03:15.935Z,80.40
2023-05-23T17:05:43.365Z,80.30
2023-05-23T17:08:10.538Z,80.30
2023-05-23T17:10:37.789Z,81.00
2023-05-23T17:13:04.726Z,81.70
2023-05-23T17:15:31.760Z,82.10
2023-05-23T17:17:58.867Z,82.90
2023-05-23T17:20:26.727Z,83.70
2023-05-23T17:22:54.583Z,84.30
2023-05-23T17:25:21.952Z,84.60
2023-05-23T17:27:49.152Z,84.90
2023-05-23T17:30:18.414Z,85.40
2023-05-23T17:32:49.372Z,85.90
2023-05-23T17:35:16.335Z,86.10
2023-05-23T17:37:44.748Z,85.80
2023-05-23T17:40:13.101Z,86.10
2023-05-23T17:42:41.980Z,86.40
2023-05-23T17:45:09.970Z,86.90
2023-05-23T17:47:37.190Z,86.70
2023-05-23T17:50:06.213Z,86.50
2023-05-23T17:52:33.411Z,86.30
2023-05-23T17:55:01.408Z,85.90
2023-05-23T17:57:30.125Z,86.20
2023-05-23T17:59:58.038Z,86.80
2023-05-23T18:02:24.977Z,87.20
2023-05-23T18:04:52.106Z,87.40
2023-05-23T18:07:19.233Z,87.60
2023-05-23T18:09:47.258Z,88.00
2023-05-23T18:12:14.878Z,88.30
2023-05-23T18:14:42.149Z,88.40
2023-05-23T18:17:09.766Z,88.50
2023-05-23T18:19:37.254Z,88.80
2023-05-23T18:22:05.578Z,88.80
2023-05-23T18:24:32.515Z,89.30
2023-05-23T18:27:00.349Z,89.00
2023-05-23T18:29:27.511Z,89.40
2023-05-23T18:31:54.440Z,88.80
2023-05-23T18:34:22.342Z,89.40
2023-05-23T18:36:49.258Z,89.50
2023-05-23T18:39:16.832Z,89.80
2023-05-23T18:41:43.790Z,90.00
2023-05-23T18:44:11.263Z,90.00
2023-05-23T18:46:38.243Z,90.00
2023-05-23T18:49:05.396Z,90.20
2023-05-23T18:51:33.286Z,90.20
2023-05-23T18:54:00.277Z,90.40
2023-05-23T18:56:27.301Z,90.60
2023-05-23T18:58:54.282Z,90.80
2023-05-23T19:01:21.323Z,90.90
2023-05-23T19:03:48.788Z,91.00
2023-05-23T19:06:16.015Z,91.10
2023-05-23T19:08:43.083Z,91.20
2023-05-23T19:11:10.674Z,91.30
2023-05-23T19:13:37.772Z,91.40
2023-05-23T19:16:05.126Z,91.40
2023-05-23T19:18:32.304Z,91.50
2023-05-23T19:20:59.430Z,91.40
2023-05-23T19:23:27.888Z,91.50
2023-05-23T19:25:54.997Z,91.60
2023-05-23T19:28:21.917Z,91.80
2023-05-23T19:30:49.075Z,91.90
2023-05-23T19:33:17.975Z,91.90
2023-05-23T19:35:45.214Z,91.80
2023-05-23T19:38:12.168Z,92.10
2023-05-23T19:40:39.302Z,91.90
2023-05-23T19:43:06.379Z,92.10
2023-05-23T19:45:33.342Z,92.20
2023-05-23T19:48:01.622Z,92.20
2023-05-23T19:50:28.960Z,92.30
2023-05-23T19:52:56.068Z,92.30
2023-05-23T19:55:23.044Z,92.30
2023-05-23T19:57:50.139Z,92.50
2023-05-23T20:00:18.204Z,92.40
2023-05-23T20:02:45.343Z,92.30
2023-05-23T20:05:12.336Z,92.20
2023-05-23T20:07:39.807Z,92.10
2023-05-23T20:10:07.712Z,92.00
2023-05-23T20:12:35.594Z,92.10
2023-05-23T20:15:03.962Z,92.20
2023-05-23T20:17:31.044Z,92.30
2023-05-23T20:19:58.143Z,92.20
2023-05-23T20:22:25.057Z,92.20
2023-05-23T20:24:52.000Z,92.10
2023-05-23T20:27:18.983Z,92.20
2023-05-23T20:29:46.137Z,92.30
2023-05-23T20:32:13.176Z,92.30
2023-05-23T20:34:40.526Z,92.30
2023-05-23T20:37:07.466Z,92.40
2023-05-23T20:39:34.824Z,92.40
2023-05-23T20:42:01.927Z,92.60
2023-05-23T20:44:28.841Z,92.60
2023-05-23T20:46:56.882Z,92.70
2023-05-23T20:49:24.752Z,92.80
2023-05-23T20:51:51.740Z,92.90
2023-05-23T20:54:18.954Z,92.90
2023-05-23T20:56:46.270Z,93.00
2023-05-23T20:59:13.281Z,92.90
2023-05-23T21:01:40.362Z,93.00
2023-05-23T21:04:07.554Z,93.00
2023-05-23T21:06:34.620Z,93.10
2023-05-23T21:09:01.614Z,93.10
2023-05-23T21:13:57.565Z,93.30
2023-05-23T21:16:24.714Z,93.40
2023-05-23T21:18:51.682Z,93.50
2023-05-23T21:21:18.657Z,93.80
2023-05-23T21:23:45.647Z,93.60
2023-05-23T21:26:12.600Z,93.70
2023-05-23T21:28:39.569Z,93.70
2023-05-23T21:31:06.791Z,93.80
2023-05-23T21:33:33.800Z,93.80
2023-05-23T21:36:01.029Z,93.60
2023-05-23T21:38:29.384Z,93.70
2023-05-23T21:40:56.368Z,93.90
2023-05-23T21:43:23.329Z,94.00
2023-05-23T21:45:50.387Z,94.20
2023-05-23T21:48:17.306Z,93.80
2023-05-23T21:50:44.394Z,93.60
2023-05-23T21:53:11.430Z,93.70
2023-05-23T21:55:38.558Z,93.70
2023-05-23T21:58:05.527Z,93.60
2023-05-23T22:00:32.572Z,93.50
2023-05-23T22:02:59.576Z,93.60
2023-05-23T22:05:27.082Z,93.40
2023-05-23T22:07:54.017Z,93.30
2023-05-23T22:10:20.982Z,92.60
2023-05-23T22:12:47.939Z,92.10
2023-05-23T22:15:14.990Z,92.10
2023-05-23T22:17:43.514Z,92.10
2023-05-23T22:20:14.307Z,92.20
2023-05-23T22:22:41.339Z,92.30
2023-05-23T22:25:08.832Z,92.30
2023-05-23T22:27:35.869Z,92.30
2023-05-23T22:30:02.912Z,92.30
2023-05-23T22:32:29.878Z,92.40
2023-05-23T22:34:56.870Z,92.50
2023-05-23T22:37:23.812Z,92.50
2023-05-23T22:39:51.172Z,92.60
2023-05-23T22:42:18.254Z,92.70
2023-05-23T22:44:45.144Z,92.90
2023-05-23T22:47:13.517Z,93.10
2023-05-23T22:49:42.327Z,93.10
2023-05-23T22:52:10.270Z,93.10
2023-05-23T22:54:37.215Z,93.10
2023-05-23T22:57:04.515Z,93.30
2023-05-23T22:59:32.614Z,93.50
2023-05-23T23:01:59.647Z,93.80
2023-05-23T23:04:30.765Z,94.50
2023-05-23T23:06:59.233Z,94.40
2023-05-23T23:09:26.869Z,94.60
2023-05-23T23:11:54.649Z,94.70
2023-05-23T23:14:21.574Z,94.80
2023-05-23T23:16:49.725Z,94.90
2023-05-23T23:19:17.727Z,95.00
2023-05-23T23:21:44.911Z,95.00
2023-05-23T23:24:11.885Z,95.00
2023-05-23T23:26:39.039Z,95.20
2023-05-23T23:29:06.023Z,95.30
2023-05-23T23:31:33.122Z,95.40
2023-05-23T23:34:00.240Z,95.50
2023-05-23T23:36:27.170Z,95.40
2023-05-23T23:38:54.121Z,95.60
2023-05-23T23:41:21.132Z,95.70
2023-05-23T23:43:48.061Z,95.50
2023-05-23T23:46:15.005Z,95.70
2023-05-23T23:48:41.924Z,95.70
2023-05-23T23:51:08.878Z,95.80
2023-05-23T23:53:35.788Z,95.80
2023-05-23T23:56:02.753Z,95.70
2023-05-23T23:58:29.650Z,95.70
